首页
METAR-TAF:

METAR-TAF

机场 :

Wendover Airport

Wendover, 犹他州, 美国

纬度: 40-44N, 经度: 114-02W, 海拔: 1291米

当前天气观测

该预报发布于1小时和12分钟前的08:56 UTC
风速3节,风向西转西北
温度 22°C
湿度 14%
气压 1013 hPa
能見度: 16.1公里
天空无云

METAR: KENV 210856Z AUTO 29003KT 10SM CLR 22/M07 A2991 RMK AO2 SLP082 T02221067 56003

时间: 04:08 (10:08 UTC)

预报

该预报发布于4小时和48分钟前的05:20 UTC
预报有效从21日的 06点(UTC)到 22日的 06点(UTC)
风速6节,风向北转西北
能見度: 10公里
少量云层高于12000英尺
散云层高于20000英尺
从 21日的 1200点(UTC)
风速5节,风向多变
能見度: 10公里
散云层高于12000英尺
散云层高于20000英尺
从 21日的 1800点(UTC)
风速8节,风向东转东南
能見度: 10公里
散云层高于12000英尺
散云层高于20000英尺
从 22日的 0200点(UTC)
风速5节,风向多变
能見度: 10公里
散云层高于12000英尺

TAF: KENV 210520Z 2106/2206 33006KT P6SM FEW120 SCT200 FM211200 VRB05KT P6SM SCT120 SCT200 FM211800 12008KT P6SM SCT120 SCT200 FM220200 VRB05KT P6SM SCT120

超过4000个机场的气象观测和天气预报(METAR&TAF报告)。

可查询的气象台以黄色和红色小点在地图上表示。

将鼠标移到小点上方,可查看气象台名称。

然后点击查看天气观测和预报。

如需切换地图:点击带黑十字的绿色按钮放大地图;点击带横线的绿色按钮缩小地图;或者点击绿色箭头查看邻近地区的地图。


METAR-TAF: